createdAt,value
2022-07-25T04:00:27.536Z,23.39
2022-07-25T04:01:27.515Z,23.42
2022-07-25T04:02:27.542Z,23.35
2022-07-25T04:03:27.459Z,23.35
2022-07-25T04:04:27.452Z,23.43
2022-07-25T04:05:27.438Z,23.43
2022-07-25T04:06:27.444Z,23.39
2022-07-25T04:07:27.447Z,23.42
2022-07-25T04:08:27.423Z,23.38
2022-07-25T04:09:27.423Z,23.39
2022-07-25T04:10:28.383Z,23.43
2022-07-25T04:11:32.413Z,23.42
2022-07-25T04:12:27.364Z,23.40
2022-07-25T04:13:27.352Z,23.40
2022-07-25T04:14:27.361Z,23.46
2022-07-25T04:15:27.381Z,23.48
2022-07-25T04:16:27.857Z,23.63
2022-07-25T04:17:27.334Z,23.60
2022-07-25T04:18:28.749Z,23.68
2022-07-25T04:19:28.916Z,23.70
2022-07-25T04:20:27.285Z,23.68
2022-07-25T04:21:27.303Z,23.69
2022-07-25T04:22:32.283Z,23.57
2022-07-25T04:23:27.254Z,23.55
2022-07-25T04:24:27.239Z,23.66
2022-07-25T04:25:27.257Z,23.63
2022-07-25T04:26:27.213Z,23.72
2022-07-25T04:27:27.207Z,23.65
2022-07-25T04:28:27.206Z,23.69
2022-07-25T04:29:27.182Z,23.69
2022-07-25T04:30:27.222Z,23.65
2022-07-25T04:31:27.240Z,23.72
2022-07-25T04:32:27.194Z,23.60
2022-07-25T04:33:32.158Z,23.68
2022-07-25T04:34:27.142Z,23.60
2022-07-25T04:35:27.125Z,23.68
2022-07-25T04:36:27.115Z,23.57
2022-07-25T04:37:27.087Z,23.55
2022-07-25T04:38:27.109Z,23.57
2022-07-25T04:39:27.081Z,23.58
2022-07-25T04:40:27.168Z,23.51
2022-07-25T04:41:27.063Z,23.60
2022-07-25T04:42:27.052Z,23.53
2022-07-25T04:43:27.071Z,23.47
2022-07-25T04:44:32.033Z,23.42
2022-07-25T04:45:27.125Z,23.50
2022-07-25T04:46:27.001Z,23.42
2022-07-25T04:47:26.994Z,23.50
2022-07-25T04:48:27.226Z,23.36
2022-07-25T04:49:26.976Z,23.40
2022-07-25T04:50:26.959Z,23.51
2022-07-25T04:51:26.932Z,23.51
2022-07-25T04:52:26.925Z,23.51
2022-07-25T04:53:26.915Z,23.55
2022-07-25T04:54:26.980Z,23.55
2022-07-25T04:55:31.961Z,23.55
2022-07-25T04:56:26.907Z,23.55
2022-07-25T04:57:26.890Z,23.57
2022-07-25T04:58:26.864Z,23.51
2022-07-25T04:59:26.883Z,23.48
2022-07-25T05:00:26.841Z,23.53
2022-07-25T05:01:26.879Z,23.55
2022-07-25T05:02:26.903Z,23.57
2022-07-25T05:03:26.804Z,23.55
2022-07-25T05:04:26.812Z,23.57
2022-07-25T05:05:26.823Z,23.61
2022-07-25T05:06:31.816Z,23.72
2022-07-25T05:07:26.772Z,23.66
2022-07-25T05:08:26.770Z,23.69
2022-07-25T05:09:26.733Z,23.61
2022-07-25T05:10:26.802Z,23.61
2022-07-25T05:11:26.732Z,23.66
2022-07-25T05:12:26.710Z,23.69
2022-07-25T05:13:26.750Z,23.78
2022-07-25T05:14:26.720Z,23.88
2022-07-25T05:15:26.688Z,23.95
2022-07-25T05:16:26.731Z,24.00
2022-07-25T05:17:31.730Z,24.09
2022-07-25T05:18:26.676Z,23.97
2022-07-25T05:19:26.625Z,24.10
2022-07-25T05:20:26.628Z,24.28
2022-07-25T05:21:26.601Z,24.24
2022-07-25T05:22:28.502Z,24.35
2022-07-25T05:23:28.145Z,24.42
2022-07-25T05:24:26.569Z,24.47
2022-07-25T05:25:26.573Z,24.45
2022-07-25T05:26:26.546Z,24.45
2022-07-25T05:27:26.604Z,24.46
2022-07-25T05:28:31.577Z,24.55
2022-07-25T05:29:26.510Z,24.47
2022-07-25T05:30:26.539Z,24.65
2022-07-25T05:31:26.537Z,24.77
2022-07-25T05:32:26.484Z,24.71
2022-07-25T05:33:26.486Z,24.78
2022-07-25T05:34:26.475Z,24.83
2022-07-25T05:35:26.452Z,24.98
2022-07-25T05:36:26.494Z,25.00
2022-07-25T05:37:26.477Z,25.18
2022-07-25T05:38:26.427Z,25.23
2022-07-25T05:39:31.437Z,25.28
2022-07-25T05:40:26.398Z,25.21
2022-07-25T05:41:26.398Z,25.25
2022-07-25T05:42:26.374Z,25.25
2022-07-25T05:43:26.368Z,25.25
2022-07-25T05:44:26.350Z,25.30
2022-07-25T05:45:26.337Z,25.33
2022-07-25T05:46:26.399Z,25.30
2022-07-25T05:47:26.374Z,25.32
2022-07-25T05:48:26.323Z,25.27
2022-07-25T05:49:26.293Z,25.35
2022-07-25T05:50:31.329Z,25.25
2022-07-25T05:51:27.728Z,25.20
2022-07-25T05:52:26.263Z,25.24
2022-07-25T05:53:26.254Z,25.33
2022-07-25T05:54:26.241Z,25.36
2022-07-25T05:55:26.238Z,25.27
2022-07-25T05:56:26.308Z,25.32
2022-07-25T05:57:26.204Z,25.38
2022-07-25T05:58:29.615Z,25.52
2022-07-25T05:59:26.199Z,25.55
2022-07-25T06:00:26.236Z,25.51
2022-07-25T06:01:31.215Z,25.54
2022-07-25T06:02:26.307Z,25.58
2022-07-25T06:03:26.240Z,25.54
2022-07-25T06:04:27.369Z,25.51
2022-07-25T06:05:26.140Z,25.42
2022-07-25T06:06:26.124Z,25.50
2022-07-25T06:07:26.097Z,25.32
2022-07-25T06:08:26.084Z,25.25
2022-07-25T06:09:26.075Z,25.23
2022-07-25T06:10:26.067Z,25.28
2022-07-25T06:11:26.062Z,25.36
2022-07-25T06:12:31.079Z,25.36
2022-07-25T06:13:26.031Z,25.36
2022-07-25T06:14:26.029Z,25.40
2022-07-25T06:15:26.854Z,25.51
2022-07-25T06:16:26.102Z,25.55
2022-07-25T06:17:29.233Z,25.60
2022-07-25T06:18:26.981Z,25.70
2022-07-25T06:19:25.972Z,25.73
2022-07-25T06:20:25.954Z,25.60
2022-07-25T06:21:25.978Z,25.61
2022-07-25T06:22:25.974Z,25.62
2022-07-25T06:23:30.990Z,25.55
2022-07-25T06:24:25.915Z,25.47
2022-07-25T06:25:25.916Z,25.51
2022-07-25T06:26:25.895Z,25.38
2022-07-25T06:27:29.251Z,25.46
2022-07-25T06:28:25.869Z,25.45
2022-07-25T06:29:25.860Z,25.39
2022-07-25T06:30:25.872Z,25.58
2022-07-25T06:31:25.884Z,25.64
2022-07-25T06:32:25.856Z,25.65
2022-07-25T06:33:25.810Z,25.82
2022-07-25T06:34:30.854Z,25.77
2022-07-25T06:35:25.788Z,25.87
2022-07-25T06:36:32.227Z,25.82
2022-07-25T06:37:26.768Z,25.83
2022-07-25T06:38:25.752Z,25.91
2022-07-25T06:39:25.889Z,25.92
2022-07-25T06:40:25.844Z,25.82
2022-07-25T06:41:25.801Z,25.82
2022-07-25T06:42:25.735Z,25.91
2022-07-25T06:43:25.700Z,25.95
2022-07-25T06:44:25.694Z,26.09
2022-07-25T06:45:30.745Z,26.28
2022-07-25T06:46:25.785Z,26.51
2022-07-25T06:47:25.657Z,26.63
2022-07-25T06:48:25.669Z,26.50
2022-07-25T06:49:25.635Z,26.65
2022-07-25T06:50:25.620Z,26.63
2022-07-25T06:51:25.643Z,26.80
2022-07-25T06:52:25.613Z,26.84
2022-07-25T06:53:25.592Z,26.89
2022-07-25T06:54:25.577Z,26.84
2022-07-25T06:55:25.571Z,26.80
2022-07-25T06:56:30.588Z,26.81
2022-07-25T06:57:25.546Z,26.66
2022-07-25T06:58:25.918Z,26.54
2022-07-25T06:59:25.527Z,26.55
2022-07-25T07:00:25.640Z,26.63
2022-07-25T07:01:25.606Z,26.72
2022-07-25T07:02:25.490Z,26.72
2022-07-25T07:03:25.610Z,26.69
2022-07-25T07:04:25.470Z,26.54
2022-07-25T07:05:25.472Z,26.52
2022-07-25T07:06:25.456Z,26.55
2022-07-25T07:07:30.483Z,26.55
2022-07-25T07:08:25.466Z,26.60
2022-07-25T07:09:25.417Z,26.55
2022-07-25T07:10:25.405Z,26.51
2022-07-25T07:11:25.412Z,26.48
2022-07-25T07:12:25.385Z,26.52
2022-07-25T07:13:25.375Z,26.43
2022-07-25T07:14:25.363Z,26.52
2022-07-25T07:15:25.357Z,26.54
2022-07-25T07:16:25.438Z,26.62
2022-07-25T07:17:25.330Z,26.58
2022-07-25T07:18:30.344Z,26.48
2022-07-25T07:19:25.309Z,26.48
2022-07-25T07:20:25.296Z,26.50
2022-07-25T07:21:25.301Z,26.65
2022-07-25T07:22:25.274Z,26.73
2022-07-25T07:23:25.310Z,26.85
2022-07-25T07:24:25.254Z,26.77
2022-07-25T07:25:28.348Z,26.88
2022-07-25T07:26:25.246Z,26.85
2022-07-25T07:27:25.225Z,26.82
2022-07-25T07:28:25.209Z,26.85
2022-07-25T07:29:30.224Z,26.81
2022-07-25T07:30:37.660Z,26.82
2022-07-25T07:31:26.294Z,26.87
2022-07-25T07:32:25.268Z,26.97
2022-07-25T07:33:25.159Z,27.04
2022-07-25T07:34:25.188Z,27.17
2022-07-25T07:35:25.138Z,27.36
2022-07-25T07:36:25.134Z,27.41
2022-07-25T07:37:25.115Z,27.44
2022-07-25T07:38:25.112Z,27.46
2022-07-25T07:39:25.094Z,27.50
2022-07-25T07:40:30.110Z,27.37
2022-07-25T07:41:25.083Z,27.37
2022-07-25T07:42:25.066Z,27.17
2022-07-25T07:43:29.615Z,27.12
2022-07-25T07:44:26.040Z,27.19
2022-07-25T07:45:25.032Z,27.17
2022-07-25T07:46:25.083Z,27.22
2022-07-25T07:47:25.013Z,27.22
2022-07-25T07:48:25.000Z,27.10
2022-07-25T07:49:25.037Z,27.19
2022-07-25T07:50:24.973Z,27.10
2022-07-25T07:51:29.999Z,27.22
2022-07-25T07:52:24.953Z,27.21
2022-07-25T07:53:24.956Z,27.24
2022-07-25T07:54:24.936Z,27.31
2022-07-25T07:55:24.927Z,27.37
2022-07-25T07:56:24.926Z,27.31
2022-07-25T07:57:24.907Z,27.31
2022-07-25T07:58:24.886Z,27.37
2022-07-25T07:59:24.884Z,27.49
2022-07-25T08:00:24.871Z,27.57
2022-07-25T08:01:24.915Z,27.62
2022-07-25T08:02:29.937Z,27.69
2022-07-25T08:03:24.963Z,27.69
2022-07-25T08:04:24.821Z,27.79
2022-07-25T08:05:24.888Z,27.81
2022-07-25T08:06:24.811Z,27.75
2022-07-25T08:07:24.799Z,27.72
2022-07-25T08:08:29.126Z,27.81
2022-07-25T08:09:25.769Z,27.87
2022-07-25T08:10:24.759Z,27.82
2022-07-25T08:11:24.744Z,27.93
2022-07-25T08:12:24.748Z,27.96
2022-07-25T08:13:30.310Z,27.94
2022-07-25T08:14:24.720Z,27.96
2022-07-25T08:15:24.701Z,28.06
2022-07-25T08:16:24.769Z,28.06
2022-07-25T08:17:28.496Z,27.97
2022-07-25T08:18:24.664Z,28.09
2022-07-25T08:19:24.660Z,28.03
2022-07-25T08:20:38.941Z,28.09
2022-07-25T08:21:25.634Z,28.07
2022-07-25T08:22:24.630Z,28.15
2022-07-25T08:23:24.614Z,28.14
2022-07-25T08:24:29.713Z,28.17
2022-07-25T08:25:24.589Z,28.22
2022-07-25T08:26:24.581Z,28.31
2022-07-25T08:27:24.582Z,28.25
2022-07-25T08:28:24.567Z,28.29
2022-07-25T08:29:28.244Z,28.39
2022-07-25T08:30:24.552Z,28.34
2022-07-25T08:31:24.594Z,28.39
2022-07-25T08:32:24.522Z,28.40
2022-07-25T08:33:24.511Z,28.54
2022-07-25T08:34:24.517Z,28.61
2022-07-25T08:35:29.525Z,28.70
2022-07-25T08:36:24.472Z,28.81
2022-07-25T08:37:24.506Z,28.73
2022-07-25T08:38:24.458Z,28.77
2022-07-25T08:39:24.438Z,28.80
2022-07-25T08:40:24.427Z,28.83
2022-07-25T08:41:24.919Z,28.86
2022-07-25T08:42:24.421Z,28.89
2022-07-25T08:43:24.397Z,28.88
2022-07-25T08:44:24.417Z,28.92
2022-07-25T08:45:24.437Z,28.90
2022-07-25T08:46:29.428Z,29.02
2022-07-25T08:47:24.424Z,28.96
2022-07-25T08:48:24.544Z,29.05
2022-07-25T08:49:24.388Z,29.11
2022-07-25T08:50:24.319Z,29.26
2022-07-25T08:51:24.308Z,29.19
2022-07-25T08:52:24.307Z,29.33
2022-07-25T08:53:33.589Z,29.36
2022-07-25T08:54:25.293Z,29.42
2022-07-25T08:55:24.300Z,29.43
2022-07-25T08:56:24.254Z,29.55
2022-07-25T08:57:29.275Z,29.63
2022-07-25T08:58:24.231Z,29.76
2022-07-25T08:59:24.221Z,29.83
2022-07-25T09:00:24.214Z,29.94
2022-07-25T09:01:24.263Z,29.92
2022-07-25T09:02:24.363Z,30.01
2022-07-25T09:03:24.240Z,30.00
2022-07-25T09:04:24.169Z,30.01
2022-07-25T09:05:24.156Z,30.01
2022-07-25T09:06:24.146Z,30.08
2022-07-25T09:07:24.154Z,30.26
2022-07-25T09:08:29.168Z,30.16
2022-07-25T09:09:24.112Z,30.23
2022-07-25T09:10:24.167Z,30.19
2022-07-25T09:11:24.094Z,30.24
2022-07-25T09:12:26.048Z,30.26
2022-07-25T09:13:24.082Z,30.29
2022-07-25T09:14:24.063Z,30.27
2022-07-25T09:15:24.056Z,30.37
2022-07-25T09:16:24.056Z,30.32
2022-07-25T09:17:24.040Z,30.34
2022-07-25T09:18:24.026Z,30.42
2022-07-25T09:19:29.057Z,30.47
2022-07-25T09:20:24.078Z,30.46
2022-07-25T09:21:24.015Z,30.70
2022-07-25T09:22:23.986Z,30.67
2022-07-25T09:23:23.961Z,30.67
2022-07-25T09:24:23.950Z,30.77
2022-07-25T09:25:23.942Z,30.73
2022-07-25T09:26:23.943Z,30.69
2022-07-25T09:27:23.930Z,30.83
2022-07-25T09:28:23.906Z,30.70
2022-07-25T09:29:23.909Z,30.73
2022-07-25T09:30:23.888Z,30.61
2022-07-25T09:31:23.941Z,30.70
2022-07-25T09:32:28.902Z,30.80
2022-07-25T09:33:23.876Z,31.12
2022-07-25T09:34:25.594Z,31.26
2022-07-25T09:35:23.841Z,31.35
2022-07-25T09:36:23.820Z,31.48
2022-07-25T09:37:23.826Z,31.51
2022-07-25T09:38:23.799Z,31.62
2022-07-25T09:39:23.789Z,31.69
2022-07-25T09:40:23.776Z,31.78
2022-07-25T09:41:23.769Z,31.93
2022-07-25T09:42:23.758Z,32.47
2022-07-25T09:43:23.758Z,32.92
2022-07-25T09:44:23.734Z,33.03
2022-07-25T09:45:31.563Z,33.45
2022-07-25T09:46:23.823Z,33.45
2022-07-25T09:47:23.739Z,33.16
2022-07-25T09:48:23.789Z,33.14
2022-07-25T09:49:23.706Z,33.14
2022-07-25T09:50:23.687Z,33.29
2022-07-25T09:51:23.668Z,33.26
2022-07-25T09:52:23.661Z,33.15
2022-07-25T09:53:23.644Z,33.12
2022-07-25T09:54:23.689Z,33.09
2022-07-25T09:55:23.626Z,33.01
2022-07-25T09:56:23.609Z,32.85
2022-07-25T09:57:23.623Z,32.84
2022-07-25T09:58:28.613Z,32.78
2022-07-25T09:59:23.600Z,32.63
2022-07-25T10:00:23.589Z,32.59
2022-07-25T10:01:23.664Z,32.56
2022-07-25T10:02:23.603Z,32.47
2022-07-25T10:03:23.545Z,32.47
2022-07-25T10:04:23.524Z,32.43
2022-07-25T10:05:23.589Z,32.35
2022-07-25T10:06:23.546Z,32.32
2022-07-25T10:07:27.093Z,32.28
2022-07-25T10:08:24.490Z,32.38
2022-07-25T10:09:23.476Z,32.35
2022-07-25T10:10:23.460Z,32.37
2022-07-25T10:11:28.560Z,32.38
2022-07-25T10:12:23.473Z,32.38
2022-07-25T10:13:23.455Z,32.47
2022-07-25T10:14:23.436Z,32.50
2022-07-25T10:15:23.421Z,32.45
2022-07-25T10:16:23.452Z,32.45
2022-07-25T10:17:23.541Z,32.41
2022-07-25T10:18:23.389Z,32.41
2022-07-25T10:19:23.370Z,32.32
2022-07-25T10:20:23.360Z,32.32
2022-07-25T10:21:26.767Z,32.13
2022-07-25T10:22:46.482Z,32.04
2022-07-25T10:23:24.369Z,32.08
2022-07-25T10:24:28.337Z,32.13
2022-07-25T10:25:23.331Z,32.10
2022-07-25T10:26:23.316Z,31.99
2022-07-25T10:27:23.283Z,32.03
2022-07-25T10:28:23.282Z,31.96
2022-07-25T10:29:23.262Z,32.14
2022-07-25T10:30:23.263Z,32.10
2022-07-25T10:31:23.339Z,32.11
2022-07-25T10:32:23.233Z,32.15
2022-07-25T10:33:23.229Z,32.15
2022-07-25T10:34:23.211Z,32.11
2022-07-25T10:35:23.199Z,32.15
2022-07-25T10:36:23.197Z,32.15
2022-07-25T10:37:28.266Z,32.23
2022-07-25T10:38:23.189Z,32.25
2022-07-25T10:39:23.185Z,32.23
2022-07-25T10:40:23.146Z,32.28
2022-07-25T10:41:23.136Z,32.30
2022-07-25T10:42:23.126Z,32.26
2022-07-25T10:43:23.123Z,32.23
2022-07-25T10:44:23.125Z,32.26
2022-07-25T10:45:23.128Z,32.29
2022-07-25T10:46:23.173Z,32.19
2022-07-25T10:47:23.073Z,32.19
2022-07-25T10:48:23.074Z,32.11
2022-07-25T10:49:31.103Z,32.15
2022-07-25T10:50:53.440Z,32.07
2022-07-25T10:51:24.050Z,32.06
2022-07-25T10:52:23.046Z,32.08
2022-07-25T10:53:23.022Z,32.03
2022-07-25T10:54:23.034Z,32.14
2022-07-25T10:55:22.989Z,32.14
2022-07-25T10:56:22.978Z,32.21
2022-07-25T10:57:22.967Z,32.19
2022-07-25T10:58:22.965Z,32.19
2022-07-25T10:59:22.942Z,32.18
2022-07-25T11:00:22.971Z,32.32
2022-07-25T11:01:23.042Z,32.48
2022-07-25T11:02:22.991Z,32.55
2022-07-25T11:03:27.934Z,32.57
2022-07-25T11:04:22.915Z,32.62
2022-07-25T11:05:22.901Z,32.59
2022-07-25T11:06:22.869Z,32.67
2022-07-25T11:07:22.970Z,32.78
2022-07-25T11:08:23.101Z,32.79
2022-07-25T11:09:27.258Z,32.82
2022-07-25T11:10:22.828Z,32.93
2022-07-25T11:11:22.816Z,32.96
2022-07-25T11:12:22.805Z,33.03
2022-07-25T11:13:22.806Z,33.07
2022-07-25T11:14:22.788Z,33.07
2022-07-25T11:15:22.773Z,33.04
2022-07-25T11:16:27.837Z,33.15
2022-07-25T11:17:22.772Z,33.07
2022-07-25T11:18:22.779Z,33.18
2022-07-25T11:19:22.732Z,33.16
2022-07-25T11:20:22.725Z,33.06
2022-07-25T11:21:22.710Z,33.14
2022-07-25T11:22:22.714Z,33.00
2022-07-25T11:23:22.706Z,32.93
2022-07-25T11:24:22.692Z,33.03
2022-07-25T11:25:22.666Z,33.18
2022-07-25T11:26:22.666Z,33.23
2022-07-25T11:27:22.651Z,33.23
2022-07-25T11:28:22.646Z,33.45
2022-07-25T11:29:27.650Z,33.39
2022-07-25T11:30:22.640Z,33.42
2022-07-25T11:31:22.660Z,33.39
2022-07-25T11:32:22.596Z,33.59
2022-07-25T11:33:22.632Z,33.78
2022-07-25T11:34:22.574Z,33.95
2022-07-25T11:35:22.565Z,34.15
2022-07-25T11:36:22.556Z,34.37
2022-07-25T11:37:22.543Z,34.61
2022-07-25T11:38:22.548Z,34.97
2022-07-25T11:39:22.526Z,34.92
2022-07-25T11:40:22.522Z,34.99
2022-07-25T11:41:22.500Z,35.09
2022-07-25T11:42:27.514Z,35.00
2022-07-25T11:43:22.495Z,34.80
2022-07-25T11:44:22.493Z,34.54
2022-07-25T11:45:22.459Z,34.43
2022-07-25T11:46:22.508Z,34.49
2022-07-25T11:47:22.438Z,34.37
2022-07-25T11:48:22.438Z,34.37
2022-07-25T11:49:22.469Z,34.39
2022-07-25T11:50:22.440Z,34.42
2022-07-25T11:51:22.398Z,34.27
2022-07-25T11:52:22.388Z,34.34
2022-07-25T11:53:27.406Z,34.31
2022-07-25T11:54:22.406Z,34.46
2022-07-25T11:55:22.379Z,34.69
2022-07-25T11:57:23.336Z,34.99
2022-07-25T11:58:22.336Z,34.96
2022-07-25T11:59:22.313Z,35.28
2022-07-25T12:00:22.307Z,35.59
2022-07-25T12:01:22.293Z,35.52
2022-07-25T12:02:22.587Z,35.44
2022-07-25T12:03:22.482Z,35.31
2022-07-25T12:04:22.268Z,35.52
2022-07-25T12:05:22.253Z,35.68
2022-07-25T12:06:27.264Z,35.75
2022-07-25T12:07:22.255Z,35.89
2022-07-25T12:08:22.256Z,36.13
2022-07-25T12:09:22.217Z,36.13
2022-07-25T12:10:22.201Z,36.22
2022-07-25T12:11:22.190Z,36.31
2022-07-25T12:12:22.181Z,36.28
2022-07-25T12:13:22.179Z,36.13
2022-07-25T12:14:22.162Z,35.97
2022-07-25T12:15:22.150Z,35.82
2022-07-25T12:16:22.205Z,35.65
2022-07-25T12:17:22.130Z,35.58
2022-07-25T12:18:22.143Z,35.63
2022-07-25T12:19:27.153Z,35.77
2022-07-25T12:20:22.100Z,35.93
2022-07-25T12:21:22.091Z,35.93
2022-07-25T12:22:22.078Z,36.09
2022-07-25T12:23:22.150Z,36.25
2022-07-25T12:24:22.074Z,35.90
2022-07-25T12:25:22.054Z,35.63
2022-07-25T12:26:22.069Z,35.63
2022-07-25T12:27:22.028Z,35.45
2022-07-25T12:28:22.020Z,35.85
2022-07-25T12:29:22.026Z,35.96
2022-07-25T12:30:27.082Z,35.92
2022-07-25T12:31:22.095Z,36.19
2022-07-25T12:32:21.982Z,36.49
2022-07-25T12:33:21.971Z,36.38
2022-07-25T12:34:21.969Z,36.60
2022-07-25T12:35:21.948Z,37.09
2022-07-25T12:36:21.940Z,37.27
2022-07-25T12:37:21.928Z,37.43
2022-07-25T12:38:21.919Z,37.25
2022-07-25T12:39:21.917Z,36.93
2022-07-25T12:40:21.901Z,36.90
2022-07-25T12:41:26.909Z,36.73
2022-07-25T12:42:21.892Z,36.59
2022-07-25T12:43:21.866Z,36.09
2022-07-25T12:44:21.869Z,35.93
2022-07-25T12:45:21.848Z,35.62
2022-07-25T12:46:21.877Z,35.50
2022-07-25T12:47:21.825Z,35.26
2022-07-25T12:48:21.819Z,35.16
2022-07-25T12:49:21.876Z,35.04
2022-07-25T12:50:21.796Z,34.97
2022-07-25T12:51:21.788Z,34.77
2022-07-25T12:52:26.815Z,34.75
2022-07-25T12:53:21.763Z,34.77
2022-07-25T12:54:22.639Z,34.84
2022-07-25T12:55:21.854Z,34.82
2022-07-25T12:56:21.749Z,34.82
2022-07-25T12:57:21.751Z,34.85
2022-07-25T12:58:21.713Z,34.80
2022-07-25T12:59:21.714Z,34.84
2022-07-25T13:00:21.692Z,34.82
2022-07-25T13:01:21.804Z,34.78
2022-07-25T13:02:21.794Z,34.73
2022-07-25T13:03:26.684Z,34.69
2022-07-25T13:04:21.693Z,34.69
2022-07-25T13:05:21.667Z,34.66
2022-07-25T13:06:21.638Z,34.69
2022-07-25T13:07:21.624Z,34.62
2022-07-25T13:08:21.608Z,34.62
2022-07-25T13:09:21.606Z,34.54
2022-07-25T13:10:21.597Z,34.52
2022-07-25T13:11:21.576Z,34.44
2022-07-25T13:12:21.569Z,34.39
2022-07-25T13:13:21.559Z,34.42
2022-07-25T13:14:21.556Z,34.31
2022-07-25T13:15:21.539Z,34.24
2022-07-25T13:16:26.607Z,34.24
2022-07-25T13:17:26.739Z,34.10
2022-07-25T13:18:22.526Z,34.12
2022-07-25T13:19:21.501Z,34.03
2022-07-25T13:20:21.493Z,34.00
2022-07-25T13:21:21.477Z,33.90
2022-07-25T13:22:21.471Z,33.88
2022-07-25T13:23:21.459Z,33.90
2022-07-25T13:24:21.449Z,34.00
2022-07-25T13:25:21.429Z,33.97
2022-07-25T13:26:21.419Z,33.98
2022-07-25T13:27:21.417Z,33.98
2022-07-25T13:28:21.407Z,33.95
2022-07-25T13:29:26.419Z,34.00
2022-07-25T13:30:21.409Z,34.05
2022-07-25T13:31:21.491Z,33.98
2022-07-25T13:32:21.359Z,33.91
2022-07-25T13:33:21.346Z,33.90
2022-07-25T13:34:21.336Z,33.90
2022-07-25T13:35:23.390Z,33.90
2022-07-25T13:36:22.315Z,33.87
2022-07-25T13:37:21.329Z,33.91
2022-07-25T13:38:21.295Z,33.84
2022-07-25T13:39:21.303Z,33.88
2022-07-25T13:40:21.282Z,33.73
2022-07-25T13:41:21.264Z,33.76
2022-07-25T13:42:26.335Z,33.71
2022-07-25T13:43:21.266Z,33.76
2022-07-25T13:44:21.257Z,33.69
2022-07-25T13:45:21.230Z,33.72
2022-07-25T13:46:21.236Z,33.72
2022-07-25T13:47:21.198Z,33.71
2022-07-25T13:48:30.333Z,33.50
2022-07-25T13:49:22.316Z,33.56
2022-07-25T13:50:21.334Z,33.54
2022-07-25T13:51:21.158Z,33.59
2022-07-25T13:52:21.155Z,33.60
2022-07-25T13:53:21.136Z,33.60
2022-07-25T13:54:21.136Z,33.53
2022-07-25T13:55:26.172Z,33.54
2022-07-25T13:56:21.131Z,33.44
2022-07-25T13:57:21.135Z,33.41
2022-07-25T13:58:21.090Z,33.31
2022-07-25T13:59:21.926Z,33.26
2022-07-25T14:00:21.072Z,33.12
2022-07-25T14:01:21.148Z,33.16
2022-07-25T14:02:21.138Z,33.16
2022-07-25T14:03:21.031Z,33.19
2022-07-25T14:04:21.034Z,33.12
2022-07-25T14:05:21.019Z,33.04
2022-07-25T14:06:20.999Z,33.09
2022-07-25T14:07:20.990Z,33.00
2022-07-25T14:08:26.003Z,32.82
2022-07-25T14:09:20.991Z,32.72
2022-07-25T14:10:20.991Z,32.56
2022-07-25T14:11:20.945Z,31.89
2022-07-25T14:12:20.939Z,30.51
2022-07-25T14:13:20.925Z,29.60
2022-07-25T14:14:20.923Z,29.19
2022-07-25T14:15:20.913Z,28.81
2022-07-25T14:16:20.899Z,28.49
2022-07-25T14:17:20.939Z,28.36
2022-07-25T14:18:20.877Z,28.39
2022-07-25T14:19:20.861Z,28.46
2022-07-25T14:20:20.862Z,28.61
2022-07-25T14:21:25.862Z,28.64
2022-07-25T14:22:20.844Z,28.78
2022-07-25T14:23:20.819Z,28.83
2022-07-25T14:24:20.810Z,28.88
2022-07-25T14:25:20.807Z,28.95
2022-07-25T14:26:20.793Z,29.09
2022-07-25T14:27:20.775Z,29.14
2022-07-25T14:28:20.775Z,29.26
2022-07-25T14:29:20.774Z,29.41
2022-07-25T14:30:20.756Z,29.43
2022-07-25T14:31:20.789Z,29.51
2022-07-25T14:32:25.748Z,29.61
2022-07-25T14:33:20.715Z,29.67
2022-07-25T14:34:20.706Z,29.78
2022-07-25T14:35:20.706Z,29.90
2022-07-25T14:36:20.681Z,29.90
2022-07-25T14:37:20.668Z,30.05
2022-07-25T14:38:20.660Z,30.16
2022-07-25T14:39:20.650Z,30.17
2022-07-25T14:40:20.666Z,30.20
2022-07-25T14:41:20.643Z,30.27
2022-07-25T14:42:20.615Z,30.39
2022-07-25T14:43:25.625Z,30.34
2022-07-25T14:44:20.611Z,30.49
2022-07-25T14:45:20.587Z,30.51
2022-07-25T14:46:20.656Z,30.70
2022-07-25T14:47:20.642Z,30.77
2022-07-25T14:48:20.552Z,30.82
2022-07-25T14:49:20.599Z,30.92
2022-07-25T14:50:20.541Z,30.97
2022-07-25T14:51:20.532Z,31.02
2022-07-25T14:52:20.516Z,31.07
2022-07-25T14:53:20.511Z,31.21
2022-07-25T14:54:25.508Z,31.31
2022-07-25T14:55:20.475Z,31.43
2022-07-25T14:56:20.599Z,31.43
2022-07-25T14:57:20.455Z,31.48
2022-07-25T14:58:20.445Z,31.39
2022-07-25T14:59:20.433Z,31.51
2022-07-25T15:00:20.611Z,31.50
2022-07-25T15:01:20.456Z,31.56
2022-07-25T15:02:20.401Z,31.63
2022-07-25T15:03:20.395Z,31.72
2022-07-25T15:04:20.405Z,31.81
2022-07-25T15:05:25.391Z,31.85
2022-07-25T15:06:21.815Z,31.89
2022-07-25T15:07:20.350Z,31.91
2022-07-25T15:08:20.339Z,32.03
2022-07-25T15:09:20.328Z,32.03
2022-07-25T15:10:20.322Z,32.06
2022-07-25T15:11:20.314Z,32.11
2022-07-25T15:12:20.294Z,32.15
2022-07-25T15:13:30.963Z,32.22
2022-07-25T15:14:21.274Z,32.21
2022-07-25T15:15:20.269Z,32.30
2022-07-25T15:16:25.368Z,32.32
2022-07-25T15:17:20.242Z,32.38
2022-07-25T15:18:20.230Z,32.40
2022-07-25T15:19:20.219Z,32.44
2022-07-25T15:20:20.210Z,32.55
2022-07-25T15:21:20.209Z,32.66
2022-07-25T15:22:20.186Z,32.56
2022-07-25T15:23:20.178Z,32.56
2022-07-25T15:24:20.168Z,32.55
2022-07-25T15:25:58.437Z,32.66
2022-07-25T15:26:21.153Z,32.66
2022-07-25T15:27:25.165Z,32.72
2022-07-25T15:28:20.123Z,32.81
2022-07-25T15:29:20.113Z,32.82
2022-07-25T15:30:20.101Z,32.78
2022-07-25T15:31:20.140Z,32.87
2022-07-25T15:32:20.110Z,32.93
2022-07-25T15:33:20.070Z,32.97
2022-07-25T15:34:20.059Z,32.96
2022-07-25T15:35:20.051Z,33.06
2022-07-25T15:36:20.052Z,33.06
2022-07-25T15:37:20.033Z,33.06
2022-07-25T15:38:25.037Z,33.09
2022-07-25T15:39:20.030Z,33.15
2022-07-25T15:40:20.037Z,33.11
2022-07-25T15:41:19.994Z,33.09
2022-07-25T15:42:19.975Z,33.03
2022-07-25T15:43:19.967Z,33.04
2022-07-25T15:44:19.953Z,33.12
2022-07-25T15:45:35.189Z,33.16
2022-07-25T15:46:21.015Z,33.32
2022-07-25T15:47:19.925Z,33.21
2022-07-25T15:48:19.909Z,33.26
2022-07-25T15:49:19.984Z,33.21
2022-07-25T15:50:19.895Z,33.22
2022-07-25T15:51:24.939Z,33.11
2022-07-25T15:52:19.933Z,33.18
2022-07-25T15:53:19.882Z,33.12
2022-07-25T15:54:19.849Z,33.12
2022-07-25T15:55:19.838Z,33.11
2022-07-25T15:56:19.837Z,33.01
2022-07-25T15:57:19.824Z,33.06
2022-07-25T15:58:19.802Z,33.03
2022-07-25T15:59:19.794Z,33.07
2022-07-25T16:00:19.806Z,33.03
2022-07-25T16:01:19.855Z,33.07
2022-07-25T16:02:19.762Z,33.11
2022-07-25T16:03:19.750Z,33.03
2022-07-25T16:04:24.808Z,33.03
2022-07-25T16:05:19.753Z,32.99
2022-07-25T16:06:19.751Z,33.00
2022-07-25T16:07:19.794Z,32.92
2022-07-25T16:08:19.706Z,32.99
2022-07-25T16:09:19.687Z,32.97
2022-07-25T16:10:19.676Z,33.06
2022-07-25T16:11:19.681Z,33.03
2022-07-25T16:12:19.654Z,33.15
2022-07-25T16:13:19.647Z,33.23
2022-07-25T16:14:19.639Z,33.22
2022-07-25T16:15:19.633Z,33.21
2022-07-25T16:16:19.725Z,33.34
2022-07-25T16:17:24.635Z,33.42
2022-07-25T16:18:19.615Z,33.35
2022-07-25T16:19:19.605Z,33.19
2022-07-25T16:20:19.569Z,33.22
2022-07-25T16:21:19.563Z,33.11
2022-07-25T16:22:19.557Z,33.18
2022-07-25T16:23:19.539Z,33.09
2022-07-25T16:24:19.527Z,33.00
2022-07-25T16:25:19.520Z,33.03
2022-07-25T16:26:19.881Z,33.03
2022-07-25T16:27:19.510Z,33.00
2022-07-25T16:28:19.512Z,32.96
2022-07-25T16:29:19.476Z,32.81
2022-07-25T16:30:24.483Z,32.75
2022-07-25T16:31:19.528Z,32.56
2022-07-25T16:32:19.496Z,32.66
2022-07-25T16:33:19.433Z,32.55
2022-07-25T16:34:19.420Z,32.50
2022-07-25T16:35:19.411Z,32.32
2022-07-25T16:36:19.403Z,32.33
2022-07-25T16:37:19.415Z,32.23
2022-07-25T16:38:19.379Z,32.22
2022-07-25T16:39:19.369Z,32.14
2022-07-25T16:40:19.356Z,32.10
2022-07-25T16:41:19.355Z,32.07
2022-07-25T16:42:19.346Z,32.00
2022-07-25T16:43:24.347Z,31.92
2022-07-25T16:44:19.336Z,31.84
2022-07-25T16:45:19.335Z,31.78
2022-07-25T16:46:19.346Z,31.73
2022-07-25T16:47:19.293Z,31.66
2022-07-25T16:48:19.274Z,31.69
2022-07-25T16:49:19.333Z,31.57
2022-07-25T16:50:19.250Z,31.54
2022-07-25T16:51:19.242Z,31.48
2022-07-25T16:52:19.247Z,31.48
2022-07-25T16:53:19.222Z,31.47